createdAt,value
2022-11-06T00:01:45.626Z,5.82
2022-11-06T00:04:12.477Z,4.97
2022-11-06T00:06:39.297Z,5.65
2022-11-06T00:09:09.410Z,7.43
2022-11-06T00:11:36.395Z,6.88
2022-11-06T00:14:04.095Z,4.38
2022-11-06T00:16:30.972Z,6.17
2022-11-06T00:19:01.489Z,5.95
2022-11-06T00:21:30.634Z,6.65
2022-11-06T00:24:00.444Z,6.90
2022-11-06T00:26:28.787Z,6.07
2022-11-06T00:28:56.155Z,5.77
2022-11-06T00:31:28.935Z,6.60
2022-11-06T00:33:57.716Z,5.75
2022-11-06T00:36:26.322Z,5.53
2022-11-06T00:38:57.426Z,5.95
2022-11-06T00:41:25.560Z,5.37
2022-11-06T00:44:02.830Z,7.03
2022-11-06T00:46:30.466Z,7.53
2022-11-06T00:48:57.316Z,6.28
2022-11-06T00:51:35.318Z,6.35
2022-11-06T00:54:04.632Z,5.87
2022-11-06T00:56:32.272Z,5.47
2022-11-06T00:59:00.755Z,5.32
2022-11-06T01:01:30.735Z,7.38
2022-11-06T01:04:00.379Z,6.55
2022-11-06T01:06:30.232Z,7.87
2022-11-06T01:08:57.511Z,6.63
2022-11-06T01:11:46.570Z,6.07
2022-11-06T01:14:18.633Z,7.18
2022-11-06T01:16:47.721Z,6.82
2022-11-06T01:19:16.522Z,6.60
2022-11-06T01:21:45.601Z,9.77
2022-11-06T01:24:15.696Z,6.72
2022-11-06T01:27:04.875Z,7.40
2022-11-06T01:29:29.960Z,7.93
2022-11-06T01:31:56.803Z,8.30
2022-11-06T01:34:23.624Z,7.78
2022-11-06T01:36:50.505Z,9.00
2022-11-06T01:39:17.334Z,10.38
2022-11-06T01:41:47.884Z,8.13
2022-11-06T01:44:14.623Z,7.67
2022-11-06T01:46:41.524Z,8.77
2022-11-06T01:49:16.145Z,7.65
2022-11-06T01:51:56.365Z,7.88
2022-11-06T01:54:27.827Z,8.07
2022-11-06T01:56:57.516Z,10.90
2022-11-06T01:59:33.142Z,11.30
2022-11-06T02:02:00.044Z,9.57
2022-11-06T02:04:33.889Z,9.20
2022-11-06T02:07:03.267Z,8.77
2022-11-06T02:09:32.389Z,9.37
2022-11-06T02:12:07.377Z,10.23
2022-11-06T02:14:50.945Z,9.77
2022-11-06T02:17:36.277Z,9.27
2022-11-06T02:20:46.618Z,9.65
2022-11-06T02:23:41.009Z,9.60
2022-11-06T02:26:22.910Z,11.20
2022-11-06T02:29:15.939Z,10.07
2022-11-06T02:31:45.339Z,9.43
2022-11-06T02:34:16.702Z,10.68
2022-11-06T02:36:53.613Z,8.87
2022-11-06T02:39:24.431Z,9.75
2022-11-06T02:41:54.538Z,12.30
2022-11-06T02:44:26.848Z,8.18
2022-11-06T02:47:02.718Z,10.18
2022-11-06T02:49:40.094Z,10.60
2022-11-06T02:52:14.066Z,9.75
2022-11-06T02:54:46.244Z,9.98
2022-11-06T02:57:14.993Z,9.38
2022-11-06T03:00:09.482Z,10.60
2022-11-06T03:02:58.640Z,10.10
2022-11-06T03:05:37.199Z,9.63
2022-11-06T03:08:12.282Z,9.93
2022-11-06T03:10:47.558Z,11.48
2022-11-06T03:13:19.584Z,10.25
2022-11-06T03:16:03.144Z,12.87
2022-11-06T03:19:02.304Z,10.20
2022-11-06T03:21:57.256Z,10.77
2022-11-06T03:24:34.135Z,11.48
2022-11-06T03:27:10.254Z,10.95
2022-11-06T03:29:44.534Z,10.60
2022-11-06T03:32:33.153Z,11.25
2022-11-06T03:35:19.193Z,12.00
2022-11-06T03:38:07.385Z,11.93
2022-11-06T03:40:39.282Z,13.90
2022-11-06T03:43:11.159Z,15.23
2022-11-06T03:45:43.270Z,14.38
2022-11-06T03:48:21.067Z,14.07
2022-11-06T03:50:50.488Z,14.35
2022-11-06T03:53:25.344Z,12.43
2022-11-06T03:55:58.079Z,12.50
2022-11-06T03:58:31.272Z,14.30
2022-11-06T04:01:03.702Z,16.55
2022-11-06T04:03:36.280Z,15.60
2022-11-06T04:06:06.978Z,15.40
2022-11-06T04:08:35.198Z,17.60
2022-11-06T04:11:05.568Z,15.18
2022-11-06T04:13:35.756Z,15.30
2022-11-06T04:16:03.638Z,15.75
2022-11-06T04:18:30.540Z,14.95
2022-11-06T04:21:11.926Z,14.67
2022-11-06T04:24:25.743Z,15.10
2022-11-06T04:27:08.233Z,16.17
2022-11-06T04:30:04.940Z,14.98
2022-11-06T04:33:00.809Z,17.90
2022-11-06T04:35:35.266Z,17.33
2022-11-06T04:38:34.433Z,15.95
2022-11-06T04:41:28.508Z,16.35
2022-11-06T04:44:00.260Z,15.32
2022-11-06T04:46:33.788Z,13.27
2022-11-06T04:49:05.539Z,13.87
2022-11-06T04:51:35.977Z,14.30
2022-11-06T04:54:03.149Z,14.70
2022-11-06T04:56:35.066Z,16.45
2022-11-06T04:59:04.060Z,14.18
2022-11-06T05:01:31.342Z,15.00
2022-11-06T05:03:58.465Z,14.27
2022-11-06T05:06:29.601Z,18.17
2022-11-06T05:08:57.801Z,15.52
2022-11-06T05:11:25.088Z,13.43
2022-11-06T05:13:52.075Z,12.73
2022-11-06T05:16:18.960Z,16.67
2022-11-06T05:18:45.787Z,13.75
2022-11-06T05:21:12.600Z,16.05
2022-11-06T05:23:40.612Z,17.30
2022-11-06T05:26:08.240Z,14.77
2022-11-06T05:28:35.250Z,16.35
2022-11-06T05:31:02.090Z,15.18
2022-11-06T05:33:29.017Z,16.45
2022-11-06T05:35:55.882Z,14.30
2022-11-06T05:38:22.765Z,13.17
2022-11-06T05:40:49.564Z,13.75
2022-11-06T05:43:16.350Z,15.20
2022-11-06T05:45:43.137Z,16.52
2022-11-06T05:48:10.817Z,14.35
2022-11-06T05:50:37.809Z,16.03
2022-11-06T05:53:14.862Z,14.32
2022-11-06T05:55:41.636Z,13.50
2022-11-06T05:58:08.512Z,13.02
2022-11-06T06:00:35.216Z,14.73
2022-11-06T06:03:02.499Z,16.77
2022-11-06T06:05:29.668Z,13.68
2022-11-06T06:07:56.537Z,14.52
2022-11-06T06:10:24.159Z,14.25
2022-11-06T06:12:51.182Z,16.45
2022-11-06T06:15:18.287Z,14.83
2022-11-06T06:17:45.126Z,14.45
2022-11-06T06:20:12.404Z,17.58
2022-11-06T06:22:39.436Z,15.30
2022-11-06T06:25:14.690Z,17.40
2022-11-06T06:27:48.433Z,16.50
2022-11-06T06:30:15.179Z,15.88
2022-11-06T06:32:42.108Z,16.38
2022-11-06T06:35:09.380Z,18.13
2022-11-06T06:37:36.628Z,15.02
2022-11-06T06:40:04.370Z,18.17
2022-11-06T06:42:32.307Z,18.15
2022-11-06T06:44:59.063Z,17.75
2022-11-06T06:47:25.896Z,17.88
2022-11-06T06:49:52.639Z,17.65
2022-11-06T06:52:19.362Z,17.30
2022-11-06T06:54:46.078Z,15.82
2022-11-06T06:57:12.876Z,14.93
2022-11-06T06:59:39.592Z,16.30
2022-11-06T07:02:06.515Z,16.48
2022-11-06T07:04:33.374Z,16.13
2022-11-06T07:07:00.145Z,17.45
2022-11-06T07:09:31.039Z,15.90
2022-11-06T07:11:58.525Z,16.80
2022-11-06T07:14:25.423Z,14.65
2022-11-06T07:16:54.011Z,16.80
2022-11-06T07:19:21.163Z,15.40
2022-11-06T07:21:51.563Z,14.68
2022-11-06T07:24:18.584Z,16.50
2022-11-06T07:26:45.334Z,14.27
2022-11-06T07:29:12.194Z,13.50
2022-11-06T07:31:39.066Z,14.10
2022-11-06T07:34:06.707Z,15.82
2022-11-06T07:36:35.769Z,15.90
2022-11-06T07:39:02.941Z,15.43
2022-11-06T07:41:29.688Z,14.30
2022-11-06T07:43:56.387Z,12.68
2022-11-06T07:46:23.186Z,11.20
2022-11-06T07:48:50.058Z,8.65
2022-11-06T07:51:16.997Z,7.15
2022-11-06T07:53:43.817Z,9.63
2022-11-06T07:56:11.419Z,7.65
2022-11-06T07:58:38.378Z,8.00
2022-11-06T08:01:06.147Z,8.82
2022-11-06T08:03:33.008Z,6.35
2022-11-06T08:06:03.166Z,8.73
2022-11-06T08:08:29.930Z,6.97
2022-11-06T08:11:01.049Z,5.93
2022-11-06T08:13:27.854Z,6.53
2022-11-06T08:15:54.858Z,9.77
2022-11-06T08:18:21.631Z,5.37
2022-11-06T08:20:48.904Z,7.32
2022-11-06T08:23:15.691Z,6.45
2022-11-06T08:25:42.557Z,6.30
2022-11-06T08:28:09.420Z,7.43
2022-11-06T08:30:36.342Z,7.23
2022-11-06T08:33:05.893Z,7.60
2022-11-06T08:35:34.722Z,8.10
2022-11-06T08:38:01.565Z,7.20
2022-11-06T08:40:31.198Z,5.85
2022-11-06T08:43:08.164Z,7.03
2022-11-06T08:45:42.205Z,7.60
2022-11-06T08:48:10.101Z,6.45
2022-11-06T08:50:39.117Z,7.18
2022-11-06T08:53:07.113Z,6.70
2022-11-06T08:55:36.443Z,6.63
2022-11-06T08:58:04.200Z,7.25
2022-11-06T09:00:31.544Z,6.97
2022-11-06T09:03:03.742Z,7.38
2022-11-06T09:05:31.743Z,11.20
2022-11-06T09:07:59.516Z,6.67
2022-11-06T09:10:28.209Z,7.68
2022-11-06T09:12:55.010Z,8.75
2022-11-06T09:15:21.919Z,6.28
2022-11-06T09:17:51.103Z,5.85
2022-11-06T09:20:20.968Z,6.27
2022-11-06T09:22:48.166Z,3.80
2022-11-06T09:25:16.352Z,6.22
2022-11-06T09:27:47.458Z,4.43
2022-11-06T09:30:17.612Z,7.90
2022-11-06T09:32:50.140Z,4.10
2022-11-06T09:35:17.109Z,4.47
2022-11-06T09:37:44.526Z,5.10
2022-11-06T09:40:24.955Z,4.15
2022-11-06T09:43:12.423Z,4.90
2022-11-06T09:45:40.310Z,7.27
2022-11-06T09:48:18.132Z,7.80
2022-11-06T09:50:59.873Z,6.28
2022-11-06T09:53:37.963Z,8.70
2022-11-06T09:56:06.688Z,6.88
2022-11-06T09:58:38.236Z,4.70
2022-11-06T10:01:24.630Z,7.55
2022-11-06T10:04:02.571Z,5.68
2022-11-06T10:06:29.962Z,4.68
2022-11-06T10:09:02.181Z,5.72
2022-11-06T10:11:41.307Z,4.30
2022-11-06T10:14:47.975Z,5.53
2022-11-06T10:17:32.604Z,3.17
2022-11-06T10:20:25.402Z,4.15
2022-11-06T10:23:13.206Z,3.70
2022-11-06T10:26:04.026Z,5.80
2022-11-06T10:28:52.726Z,5.35
2022-11-06T10:31:38.618Z,2.72
2022-11-06T10:34:21.027Z,3.95
2022-11-06T10:36:50.645Z,4.00
2022-11-06T10:39:22.627Z,4.03
2022-11-06T10:41:56.520Z,4.88
2022-11-06T10:44:31.888Z,5.07
2022-11-06T10:47:06.751Z,4.90
2022-11-06T10:49:44.996Z,3.85
2022-11-06T10:52:21.170Z,4.80
2022-11-06T10:55:03.051Z,4.43
2022-11-06T10:57:49.718Z,4.63
2022-11-06T11:00:16.950Z,6.25
2022-11-06T11:02:52.000Z,3.22
2022-11-06T11:05:24.619Z,3.33
2022-11-06T11:07:51.899Z,4.78
2022-11-06T11:10:26.409Z,4.95
2022-11-06T11:12:56.000Z,5.03
2022-11-06T11:15:25.895Z,5.07
2022-11-06T11:18:19.777Z,3.60
2022-11-06T11:21:03.923Z,5.28
2022-11-06T11:23:30.988Z,5.72
2022-11-06T11:26:27.001Z,3.40
2022-11-06T11:29:00.498Z,5.25
2022-11-06T11:31:33.366Z,6.70
2022-11-06T11:34:03.557Z,4.70
2022-11-06T11:36:58.660Z,4.15
2022-11-06T11:39:43.717Z,3.60
2022-11-06T11:42:30.956Z,6.55
2022-11-06T11:45:10.314Z,6.10
2022-11-06T11:47:39.292Z,4.50
2022-11-06T11:50:27.797Z,3.25
2022-11-06T11:53:19.620Z,4.85
2022-11-06T11:55:50.030Z,4.95
2022-11-06T11:58:37.904Z,3.50
2022-11-06T12:01:06.186Z,4.45
2022-11-06T12:03:46.699Z,4.07
2022-11-06T12:06:15.891Z,6.03
2022-11-06T12:08:49.770Z,6.65
2022-11-06T12:11:29.751Z,4.20
2022-11-06T12:14:21.890Z,4.53
2022-11-06T12:16:51.718Z,4.45
2022-11-06T12:19:21.495Z,5.70
2022-11-06T12:21:56.233Z,4.70
2022-11-06T12:24:45.921Z,5.60
2022-11-06T12:27:35.059Z,4.07
2022-11-06T12:30:06.515Z,4.00
2022-11-06T12:32:48.811Z,2.92
2022-11-06T12:35:37.607Z,3.90
2022-11-06T12:38:15.543Z,3.67
2022-11-06T12:40:54.498Z,3.95
2022-11-06T12:43:39.671Z,5.65
2022-11-06T12:46:35.070Z,2.92
2022-11-06T12:49:19.095Z,3.47
2022-11-06T12:52:05.087Z,3.60
2022-11-06T12:55:10.243Z,4.00
2022-11-06T12:58:10.837Z,3.75
2022-11-06T13:01:01.905Z,4.15
2022-11-06T13:04:00.702Z,3.47
2022-11-06T13:06:46.758Z,2.93
2022-11-06T13:09:32.003Z,2.72
2022-11-06T13:12:28.994Z,4.53
2022-11-06T13:15:02.187Z,2.38
2022-11-06T13:17:35.647Z,4.15
2022-11-06T13:20:16.728Z,3.90
2022-11-06T13:22:56.273Z,3.35
2022-11-06T13:26:17.184Z,2.65
2022-11-06T13:28:55.802Z,3.85
2022-11-06T13:31:31.254Z,2.00
2022-11-06T13:34:01.902Z,3.93
2022-11-06T13:36:32.358Z,4.15
2022-11-06T13:39:28.959Z,2.45
2022-11-06T13:41:58.112Z,3.08
2022-11-06T13:44:26.439Z,2.72
2022-11-06T13:47:06.617Z,3.17
2022-11-06T13:49:41.124Z,4.25
2022-11-06T13:52:21.799Z,2.85
2022-11-06T13:55:11.075Z,5.95
2022-11-06T13:57:52.997Z,3.13
2022-11-06T14:00:36.280Z,4.43
2022-11-06T14:03:25.295Z,4.55
2022-11-06T14:05:53.586Z,2.75
2022-11-06T14:08:45.780Z,4.63
2022-11-06T14:11:18.158Z,3.83
2022-11-06T14:14:02.770Z,4.10
2022-11-06T14:16:37.336Z,4.43
2022-11-06T14:19:22.500Z,2.80
2022-11-06T14:21:50.390Z,5.07
2022-11-06T14:24:31.050Z,4.50
2022-11-06T14:26:59.332Z,5.13
2022-11-06T14:29:26.542Z,4.40
2022-11-06T14:32:32.212Z,3.92
2022-11-06T14:35:28.657Z,2.83
2022-11-06T14:38:10.714Z,4.88
2022-11-06T14:40:40.234Z,2.50
2022-11-06T14:43:20.592Z,5.53
2022-11-06T14:46:02.198Z,3.38
2022-11-06T14:48:43.427Z,2.85
2022-11-06T14:51:13.599Z,4.55
2022-11-06T14:53:56.313Z,6.07
2022-11-06T14:56:28.972Z,4.07
2022-11-06T14:59:12.566Z,4.22
2022-11-06T15:01:40.648Z,2.83
2022-11-06T15:04:14.527Z,3.53
2022-11-06T15:06:50.825Z,5.43
2022-11-06T15:09:23.999Z,5.10
2022-11-06T15:11:52.558Z,4.05
2022-11-06T15:14:20.027Z,4.72
2022-11-06T15:16:56.051Z,6.05
2022-11-06T15:19:26.994Z,5.27
2022-11-06T15:22:06.061Z,4.18
2022-11-06T15:24:44.760Z,5.35
2022-11-06T15:27:16.359Z,7.75
2022-11-06T15:29:46.177Z,24.23
2022-11-06T15:32:20.207Z,18.07
2022-11-06T15:34:59.961Z,7.72
2022-11-06T15:37:32.823Z,5.20
2022-11-06T15:40:01.853Z,6.25
2022-11-06T15:42:34.823Z,6.10
2022-11-06T15:45:08.141Z,4.37
2022-11-06T15:47:35.890Z,6.93
2022-11-06T15:50:24.939Z,5.80
2022-11-06T15:52:52.272Z,5.95
2022-11-06T15:55:32.957Z,4.80
2022-11-06T15:58:30.806Z,5.67
2022-11-06T16:01:01.288Z,4.50
2022-11-06T16:03:31.644Z,5.55
2022-11-06T16:06:03.176Z,4.75
2022-11-06T16:08:31.778Z,4.25
2022-11-06T16:11:00.519Z,5.17
2022-11-06T16:13:29.339Z,4.45
2022-11-06T16:15:59.577Z,5.38
2022-11-06T16:18:46.494Z,5.90
2022-11-06T16:21:21.507Z,4.80
2022-11-06T16:24:12.719Z,5.83
2022-11-06T16:26:46.451Z,6.18
2022-11-06T16:29:21.513Z,7.65
2022-11-06T16:31:58.899Z,5.88
2022-11-06T16:34:32.662Z,8.45
2022-11-06T16:37:01.623Z,8.37
2022-11-06T16:39:48.756Z,11.38
2022-11-06T16:42:23.082Z,10.60
2022-11-06T16:45:21.274Z,9.63
2022-11-06T16:48:07.087Z,9.57
2022-11-06T16:50:48.895Z,9.50
2022-11-06T16:53:25.507Z,11.05
2022-11-06T16:55:59.648Z,13.15
2022-11-06T16:58:29.357Z,10.75
2022-11-06T17:01:03.470Z,9.90
2022-11-06T17:03:47.837Z,9.00
2022-11-06T17:06:22.951Z,10.30
2022-11-06T17:09:08.803Z,10.38
2022-11-06T17:11:37.862Z,9.40
2022-11-06T17:14:17.802Z,8.07
2022-11-06T17:16:54.561Z,10.67
2022-11-06T17:19:23.522Z,10.40
2022-11-06T17:21:52.275Z,9.95
2022-11-06T17:24:36.897Z,12.23
2022-11-06T17:27:18.396Z,11.65
2022-11-06T17:29:48.027Z,11.90
2022-11-06T17:32:15.177Z,12.07
2022-11-06T17:34:42.896Z,13.23
2022-11-06T17:37:12.005Z,13.55
2022-11-06T17:39:43.679Z,14.57
2022-11-06T17:42:12.144Z,14.77
2022-11-06T17:44:39.616Z,15.07
2022-11-06T17:47:09.307Z,14.25
2022-11-06T17:49:36.628Z,12.15
2022-11-06T17:52:04.688Z,13.43
2022-11-06T17:54:34.439Z,13.37
2022-11-06T17:57:04.570Z,13.38
2022-11-06T17:59:33.776Z,14.73
2022-11-06T18:02:02.240Z,13.80
2022-11-06T18:04:31.159Z,13.18
2022-11-06T18:06:58.898Z,13.17
2022-11-06T18:09:27.288Z,14.77
2022-11-06T18:11:55.830Z,14.90
2022-11-06T18:14:25.942Z,13.35
2022-11-06T18:16:55.435Z,15.75
2022-11-06T18:19:24.782Z,15.30
2022-11-06T18:21:55.342Z,14.65
2022-11-06T18:24:23.405Z,14.00
2022-11-06T18:26:51.168Z,12.38
2022-11-06T18:29:19.054Z,11.63
2022-11-06T18:31:46.467Z,15.30
2022-11-06T18:34:20.472Z,11.82
2022-11-06T18:36:51.943Z,12.07
2022-11-06T18:39:21.371Z,12.18
2022-11-06T18:41:51.290Z,13.05
2022-11-06T18:44:20.362Z,11.70
2022-11-06T18:46:49.947Z,12.15
2022-11-06T18:49:17.730Z,13.15
2022-11-06T18:51:45.207Z,11.88
2022-11-06T18:54:14.761Z,13.73
2022-11-06T18:56:43.022Z,14.00
2022-11-06T18:59:16.793Z,11.80
2022-11-06T19:01:44.626Z,15.20
2022-11-06T19:04:14.862Z,12.15
2022-11-06T19:06:42.651Z,12.95
2022-11-06T19:09:11.422Z,11.00
2022-11-06T19:11:41.013Z,13.02
2022-11-06T19:14:11.513Z,13.68
2022-11-06T19:16:39.597Z,13.95
2022-11-06T19:19:07.365Z,13.13
2022-11-06T19:21:35.301Z,13.30
2022-11-06T19:24:06.134Z,16.77
2022-11-06T19:26:35.780Z,13.70
2022-11-06T19:29:09.938Z,13.75
2022-11-06T19:31:40.430Z,14.43
2022-11-06T19:34:09.520Z,16.13
2022-11-06T19:36:37.537Z,11.98
2022-11-06T19:39:07.710Z,11.55
2022-11-06T19:41:35.667Z,9.77
2022-11-06T19:44:03.487Z,12.32
2022-11-06T19:46:35.965Z,12.77
2022-11-06T19:49:08.842Z,12.52
2022-11-06T19:51:37.248Z,11.35
2022-11-06T19:54:06.979Z,9.90
2022-11-06T19:56:35.856Z,11.63
2022-11-06T19:59:03.640Z,12.43
2022-11-06T20:01:32.211Z,13.40
2022-11-06T20:04:09.524Z,10.07
2022-11-06T20:06:39.366Z,11.60
2022-11-06T20:09:08.547Z,14.13
2022-11-06T20:11:38.191Z,10.30
2022-11-06T20:14:05.385Z,12.68
2022-11-06T20:16:33.893Z,11.68
2022-11-06T20:19:01.806Z,9.35
2022-11-06T20:21:31.579Z,10.43
2022-11-06T20:23:59.232Z,10.63
2022-11-06T20:26:29.656Z,12.63
2022-11-06T20:28:59.623Z,9.82
2022-11-06T20:31:29.275Z,10.85
2022-11-06T20:33:59.672Z,10.27
2022-11-06T20:36:31.324Z,9.37
2022-11-06T20:39:01.174Z,13.27
2022-11-06T20:41:31.054Z,9.65
2022-11-06T20:43:59.092Z,12.57
2022-11-06T20:46:26.827Z,10.35
2022-11-06T20:48:54.253Z,9.33
2022-11-06T20:51:25.577Z,23.60
2022-11-06T20:53:53.524Z,21.63
2022-11-06T20:56:23.375Z,20.90
2022-11-06T20:58:51.335Z,18.90
2022-11-06T21:01:22.687Z,16.13
2022-11-06T21:03:52.047Z,14.00
2022-11-06T21:06:21.090Z,10.50
2022-11-06T21:08:49.128Z,10.15
2022-11-06T21:11:19.984Z,11.50
2022-11-06T21:13:50.137Z,10.37
2022-11-06T21:16:30.297Z,10.00
2022-11-06T21:18:59.614Z,12.52
2022-11-06T21:21:29.971Z,13.32
2022-11-06T21:23:58.026Z,10.77
2022-11-06T21:26:28.081Z,9.77
2022-11-06T21:28:56.349Z,9.93
2022-11-06T21:31:26.367Z,9.02
2022-11-06T21:33:56.248Z,13.43
2022-11-06T21:36:25.821Z,13.55
2022-11-06T21:38:54.032Z,10.20
2022-11-06T21:41:23.137Z,11.32
2022-11-06T21:43:51.268Z,10.35
2022-11-06T21:46:19.489Z,10.20
2022-11-06T21:48:48.871Z,9.57
2022-11-06T21:51:22.442Z,10.97
2022-11-06T21:53:50.392Z,12.95
2022-11-06T21:56:21.030Z,11.15
2022-11-06T21:58:54.894Z,15.07
2022-11-06T22:01:23.206Z,13.52
2022-11-06T22:03:50.944Z,11.63
2022-11-06T22:06:20.423Z,12.50
2022-11-06T22:08:48.616Z,12.18
2022-11-06T22:11:18.353Z,13.07
2022-11-06T22:13:46.153Z,13.18
2022-11-06T22:16:15.804Z,13.80
2022-11-06T22:18:42.750Z,11.90
2022-11-06T22:21:15.109Z,12.65
2022-11-06T22:23:42.734Z,10.63
2022-11-06T22:26:13.041Z,11.20
2022-11-06T22:28:40.333Z,12.53
2022-11-06T22:31:08.706Z,11.77
2022-11-06T22:33:36.485Z,10.55
2022-11-06T22:36:07.820Z,11.23
2022-11-06T22:38:37.098Z,11.18
2022-11-06T22:41:06.007Z,11.93
2022-11-06T22:43:34.682Z,10.23
2022-11-06T22:46:08.103Z,11.60
2022-11-06T22:48:35.478Z,14.05
2022-11-06T22:51:17.694Z,12.25
2022-11-06T22:53:46.080Z,13.47
2022-11-06T22:56:12.954Z,13.32
2022-11-06T22:58:40.546Z,13.30
2022-11-06T23:01:08.910Z,12.20
2022-11-06T23:03:36.501Z,11.35
2022-11-06T23:06:08.276Z,12.77
2022-11-06T23:08:38.846Z,11.32
2022-11-06T23:11:09.138Z,10.93
2022-11-06T23:13:36.649Z,10.82
2022-11-06T23:16:12.593Z,11.15
2022-11-06T23:18:39.920Z,12.23
2022-11-06T23:21:18.733Z,12.18
2022-11-06T23:23:46.327Z,11.15
2022-11-06T23:26:19.892Z,12.30
2022-11-06T23:28:46.902Z,13.85
2022-11-06T23:31:15.399Z,10.43
2022-11-06T23:33:43.788Z,11.02
2022-11-06T23:36:13.092Z,11.43
2022-11-06T23:38:40.871Z,10.77
2022-11-06T23:41:08.793Z,10.77
2022-11-06T23:43:35.666Z,12.83
2022-11-06T23:46:02.912Z,11.02
2022-11-06T23:48:29.747Z,11.48
2022-11-06T23:50:59.923Z,11.75
2022-11-06T23:53:26.754Z,12.23
2022-11-06T23:55:53.931Z,14.53
2022-11-06T23:58:20.751Z,12.35
